^^
Datos históricos de la estación: Murcia-Puente Tocinos
Diario Informe para Mayo 17, 2018 Unidades:  Ambas    Inglés   Métrico
Diario Semanal Mensual Anual Configurable
  Máximo: Mínimo: Media:
Temperatura: 72.3 °F /  22.4 °C 57.6 °F /  14.2 °C 65.8 °F /  18.8 °C
Punto de rocio: 53.4 °F /  11.9 °C 44.6 °F /  7.0 °C 49.8 °F /  9.9 °C
Humedad: 72% 44% 57%
Velocidad viento: 14mph /  22.5km/h - 6mph /  9.6km/h
Racha viento: 28.8mph /  46.3km/h - -
Viento- - ESE
Presión: 30 in /  1015.1 hPa 29.9 in /  1012.8 hPa -
Precipitación: 0 in /  0.0 mm    
Historical Graphs
 
 
Tabla de datos para Mayo 17, 2018
Hora Temperatura Punto de rocio Presión Viento Velocidad viento Racha viento Humedad Intensidad lluvia(por hora) Nubes
00:02 63 °F /  17.2 °C 52.5 °F /  11.4 °C 30in /  1014.4hPa ENE 3.6mph /  5.8km/h 5.8mph /  9.3km/h 69% 0in /  0.0mm CLR
00:07 63 °F /  17.2 °C 52.5 °F /  11.4 °C 30in /  1014.4hPa NE 3.1mph /  5.0km/h 3.5mph /  5.6km/h 69% 0in /  0.0mm CLR
00:12 63 °F /  17.2 °C 52.5 °F /  11.4 °C 30in /  1014.4hPa ENE 3.1mph /  5.0km/h 4.6mph /  7.4km/h 69% 0in /  0.0mm CLR
00:17 63 °F /  17.2 °C 52.5 °F /  11.4 °C 30in /  1014.4hPa ENE 2.9mph /  4.7km/h 3.5mph /  5.6km/h 69% 0in /  0.0mm CLR
00:22 63 °F /  17.2 °C 52.5 °F /  11.4 °C 30in /  1014.4hPa ENE 2.9mph /  4.7km/h 4.6mph /  7.4km/h 69% 0in /  0.0mm CLR
00:27 63 °F /  17.2 °C 52.5 °F /  11.4 °C 30in /  1014.4hPa NE 2.9mph /  4.7km/h 3.5mph /  5.6km/h 69% 0in /  0.0mm CLR
00:32 62.8 °F /  17.1 °C 52.5 °F /  11.4 °C 30in /  1014.4hPa NE 2.9mph /  4.7km/h 3.1mph /  5.0km/h 69% 0in /  0.0mm CLR
00:37 62.4 °F /  16.9 °C 52.5 °F /  11.4 °C 30in /  1014.4hPa NE 2mph /  3.2km/h 2.3mph /  3.7km/h 70% 0in /  0.0mm CLR
00:42 62.4 °F /  16.9 °C 52.5 °F /  11.4 °C 30in /  1014.4hPa NE 2mph /  3.2km/h 2mph /  3.2km/h 70% 0in /  0.0mm CLR
00:47 62.2 °F /  16.8 °C 52.3 °F /  11.3 °C 30in /  1014.8hPa NE 1.4mph /  2.3km/h 2.3mph /  3.7km/h 70% 0in /  0.0mm CLR
00:52 62.2 °F /  16.8 °C 52.3 °F /  11.3 °C 30in /  1014.8hPa NE 1.4mph /  2.3km/h 2.3mph /  3.7km/h 70% 0in /  0.0mm CLR
00:57 62.2 °F /  16.8 °C 52.7 °F /  11.5 °C 30in /  1014.8hPa NE 1.4mph /  2.3km/h 2.3mph /  3.7km/h 71% 0in /  0.0mm CLR
01:02 62.1 °F /  16.7 °C 52.5 °F /  11.4 °C 30in /  1014.4hPa NE 1.4mph /  2.3km/h 2.3mph /  3.7km/h 71% 0in /  0.0mm CLR
01:07 62.1 °F /  16.7 °C 52.5 °F /  11.4 °C 30in /  1014.4hPa NE 1.4mph /  2.3km/h 2.4mph /  3.9km/h 71% 0in /  0.0mm CLR
01:12 62.1 °F /  16.7 °C 52.5 °F /  11.4 °C 30in /  1014.4hPa NE 1.4mph /  2.3km/h 2.3mph /  3.7km/h 71% 0in /  0.0mm CLR
01:17 61.9 °F /  16.6 °C 52.3 °F /  11.3 °C 30in /  1014.4hPa NE 1.4mph /  2.3km/h 2.3mph /  3.7km/h 71% 0in /  0.0mm CLR
01:22 61.7 °F /  16.5 °C 52.2 °F /  11.2 °C 30in /  1014.4hPa NE 1.4mph /  2.3km/h 2.4mph /  3.9km/h 71% 0in /  0.0mm CLR
01:27 61.5 °F /  16.4 °C 52 °F /  11.1 °C 30in /  1014.4hPa West 1.8mph /  2.9km/h 2.4mph /  3.9km/h 71% 0in /  0.0mm CLR
01:32 61.5 °F /  16.4 °C 52 °F /  11.1 °C 30in /  1014.4hPa West 1.8mph /  2.9km/h 3.5mph /  5.6km/h 71% 0in /  0.0mm CLR
01:37 61.5 °F /  16.4 °C 52 °F /  11.1 °C 30in /  1014.4hPa West 2mph /  3.2km/h 2.9mph /  4.7km/h 71% 0in /  0.0mm CLR
01:42 61.5 °F /  16.4 °C 52 °F /  11.1 °C 30in /  1014.4hPa West 2mph /  3.2km/h 2.3mph /  3.7km/h 71% 0in /  0.0mm CLR
01:47 61.5 °F /  16.4 °C 52 °F /  11.1 °C 30in /  1014.4hPa West 1.4mph /  2.3km/h 1.4mph /  2.3km/h 71% 0in /  0.0mm CLR
01:52 61.5 °F /  16.4 °C 52 °F /  11.1 °C 30in /  1014.4hPa West 1.4mph /  2.3km/h 2mph /  3.2km/h 71% 0in /  0.0mm CLR
01:57 61.7 °F /  16.5 °C 52.2 °F /  11.2 °C 30in /  1014.4hPa Calm   2.3mph /  3.7km/h 71% 0in /  0.0mm CLR
02:02 61.9 °F /  16.6 °C 52.3 °F /  11.3 °C 30in /  1014.4hPa Calm   2.4mph /  3.9km/h 71% 0in /  0.0mm CLR
02:07 61.9 °F /  16.6 °C 52.3 °F /  11.3 °C 30in /  1014.4hPa West 1.4mph /  2.3km/h 2.3mph /  3.7km/h 71% 0in /  0.0mm CLR
02:12 61.9 °F /  16.6 °C 52.3 °F /  11.3 °C 30in /  1014.4hPa West 1.4mph /  2.3km/h 2.3mph /  3.7km/h 71% 0in /  0.0mm CLR
02:17 62.1 °F /  16.7 °C 52.9 °F /  11.6 °C 30in /  1014.4hPa West 1.8mph /  2.9km/h 3.5mph /  5.6km/h 72% 0in /  0.0mm CLR
02:22 62.1 °F /  16.7 °C 52.5 °F /  11.4 °C 30in /  1014.4hPa West 1.8mph /  2.9km/h 2.3mph /  3.7km/h 71% 0in /  0.0mm CLR
02:27 62.1 °F /  16.7 °C 52.5 °F /  11.4 °C 30in /  1014.4hPa West 1.8mph /  2.9km/h 1.8mph /  2.9km/h 71% 0in /  0.0mm CLR
02:32 62.1 °F /  16.7 °C 52.9 °F /  11.6 °C 30in /  1014.4hPa SSW 1.8mph /  2.9km/h 4.6mph /  7.4km/h 72% 0in /  0.0mm CLR
02:37 62.1 °F /  16.7 °C 52.9 °F /  11.6 °C 30in /  1014.4hPa SSW 2.4mph /  3.9km/h 3.5mph /  5.6km/h 72% 0in /  0.0mm CLR
02:42 62.1 °F /  16.7 °C 52.2 °F /  11.2 °C 30in /  1014.4hPa SSW 2.4mph /  3.9km/h   70% 0in /  0.0mm CLR
02:47 61.9 °F /  16.6 °C 52 °F /  11.1 °C 30in /  1014.4hPa SSW 1.4mph /  2.3km/h 2.9mph /  4.7km/h 70% 0in /  0.0mm CLR
02:52 61.5 °F /  16.4 °C 51.6 °F /  10.9 °C 30in /  1014.4hPa SSW 1.4mph /  2.3km/h 2.3mph /  3.7km/h 70% 0in /  0.0mm CLR
02:57 61.3 °F /  16.3 °C 52.2 °F /  11.2 °C 30in /  1014.4hPa SSW 1.4mph /  2.3km/h 2.3mph /  3.7km/h 72% 0in /  0.0mm CLR
03:02 61.2 °F /  16.2 °C 51.6 °F /  10.9 °C 29.9in /  1014.1hPa SSW 1.4mph /  2.3km/h 3.5mph /  5.6km/h 71% 0in /  0.0mm CLR
03:07 61 °F /  16.1 °C 51.1 °F /  10.6 °C 29.9in /  1014.1hPa SSW 1.8mph /  2.9km/h 3.5mph /  5.6km/h 70% 0in /  0.0mm CLR
03:12 60.6 °F /  15.9 °C 50.4 °F /  10.2 °C 29.9in /  1014.1hPa SSW 1.8mph /  2.9km/h 2.9mph /  4.7km/h 69% 0in /  0.0mm CLR
03:17 60.4 °F /  15.8 °C 50.2 °F /  10.1 °C 29.9in /  1014.1hPa SSW 1.8mph /  2.9km/h 3.5mph /  5.6km/h 69% 0in /  0.0mm CLR
03:22 60.4 °F /  15.8 °C 49.8 °F /  9.9 °C 29.9in /  1014.1hPa SSW 1.8mph /  2.9km/h 4.6mph /  7.4km/h 68% 0in /  0.0mm CLR
03:27 60.4 °F /  15.8 °C 50.2 °F /  10.1 °C 29.9in /  1014.1hPa SSW 2mph /  3.2km/h 2.3mph /  3.7km/h 69% 0in /  0.0mm CLR
03:32 60.6 °F /  15.9 °C 49.6 °F /  9.8 °C 29.9in /  1013.8hPa SSW 2mph /  3.2km/h 3.5mph /  5.6km/h 67% 0in /  0.0mm CLR
03:37 60.6 °F /  15.9 °C 50.4 °F /  10.2 °C 29.9in /  1013.8hPa SSE 1.8mph /  2.9km/h 5.8mph /  9.3km/h 69% 0in /  0.0mm CLR
03:42 60.3 °F /  15.7 °C 49.3 °F /  9.6 °C 29.9in /  1013.8hPa South 1.8mph /  2.9km/h 5.8mph /  9.3km/h 67% 0in /  0.0mm CLR
03:47 59.7 °F /  15.4 °C 48.7 °F /  9.3 °C 29.9in /  1013.4hPa South 4mph /  6.4km/h 4.6mph /  7.4km/h 67% 0in /  0.0mm CLR
03:52 59.5 °F /  15.3 °C 48.6 °F /  9.2 °C 29.9in /  1013.4hPa SSE 4mph /  6.4km/h 5.8mph /  9.3km/h 67% 0in /  0.0mm CLR
03:57 59.4 °F /  15.2 °C 48.4 °F /  9.1 °C 29.9in /  1013.4hPa SSW 4mph /  6.4km/h 8.1mph /  13.0km/h 67% 0in /  0.0mm CLR
04:02 59.4 °F /  15.2 °C 48 °F /  8.9 °C 29.9in /  1013.4hPa South 4mph /  6.4km/h 8.1mph /  13.0km/h 66% 0in /  0.0mm CLR
04:07 59.4 °F /  15.2 °C 47.7 °F /  8.7 °C 29.9in /  1013.4hPa SSW 5.2mph /  8.4km/h 6.9mph /  11.1km/h 65% 0in /  0.0mm CLR
04:12 59.5 °F /  15.3 °C 47.3 °F /  8.5 °C 29.9in /  1013.4hPa SSW 5.2mph /  8.4km/h 6.9mph /  11.1km/h 64% 0in /  0.0mm CLR
04:17 59.5 °F /  15.3 °C 46.6 °F /  8.1 °C 29.9in /  1013.8hPa SSW 4.7mph /  7.6km/h 9.2mph /  14.8km/h 62% 0in /  0.0mm CLR
04:19 59.5 °F /  15.3 °C 46.6 °F /  8.1 °C 29.9in /  1013.8hPa SSW 4.7mph /  7.6km/h 9.2mph /  14.8km/h 62% 0in /  0.0mm CLR
04:24 59.5 °F /  15.3 °C 46.6 °F /  8.1 °C 29.9in /  1013.8hPa SSW 4.7mph /  7.6km/h 5.8mph /  9.3km/h 62% 0in /  0.0mm CLR
04:29 59.5 °F /  15.3 °C 46.9 °F /  8.3 °C 29.9in /  1013.8hPa South 5.4mph /  8.7km/h 5.8mph /  9.3km/h 63% 0in /  0.0mm CLR
04:34 59.5 °F /  15.3 °C 46.9 °F /  8.3 °C 29.9in /  1013.4hPa SW 5.4mph /  8.7km/h 5.8mph /  9.3km/h 63% 0in /  0.0mm CLR
04:39 59.7 °F /  15.4 °C 47.1 °F /  8.4 °C 29.9in /  1013.4hPa SSW 3.6mph /  5.8km/h 6.9mph /  11.1km/h 63% 0in /  0.0mm CLR
04:44 59.5 °F /  15.3 °C 47.3 °F /  8.5 °C 29.9in /  1013.4hPa SSW 3.6mph /  5.8km/h 8.1mph /  13.0km/h 64% 0in /  0.0mm CLR
04:49 59.5 °F /  15.3 °C 47.3 °F /  8.5 °C 29.9in /  1013.4hPa South 5.2mph /  8.4km/h 6.9mph /  11.1km/h 64% 0in /  0.0mm CLR
04:54 59.5 °F /  15.3 °C 47.3 °F /  8.5 °C 29.9in /  1013.4hPa South 5.2mph /  8.4km/h 5.2mph /  8.4km/h 64% 0in /  0.0mm CLR
04:59 59.4 °F /  15.2 °C 47.1 °F /  8.4 °C 29.9in /  1013.4hPa SSW 4.3mph /  6.9km/h 8.1mph /  13.0km/h 64% 0in /  0.0mm CLR
05:04 59.4 °F /  15.2 °C 46.8 °F /  8.2 °C 29.9in /  1013.8hPa SW 4.3mph /  6.9km/h 8.1mph /  13.0km/h 63% 0in /  0.0mm CLR
05:09 59.4 °F /  15.2 °C 46.8 °F /  8.2 °C 29.9in /  1013.8hPa SW 4.3mph /  6.9km/h 8.1mph /  13.0km/h 63% 0in /  0.0mm CLR
05:14 59.5 °F /  15.3 °C 46.9 °F /  8.3 °C 29.9in /  1013.8hPa SW 4.3mph /  6.9km/h 5.8mph /  9.3km/h 63% 0in /  0.0mm CLR
05:19 59.5 °F /  15.3 °C 46.6 °F /  8.1 °C 29.9in /  1013.8hPa SW 3.6mph /  5.8km/h 6.9mph /  11.1km/h 62% 0in /  0.0mm CLR
05:24 59.5 °F /  15.3 °C 46.6 °F /  8.1 °C 29.9in /  1013.8hPa SW 3.6mph /  5.8km/h 5.8mph /  9.3km/h 62% 0in /  0.0mm CLR
05:29 59.4 °F /  15.2 °C 46.2 °F /  7.9 °C 29.9in /  1013.8hPa SW 4mph /  6.4km/h 4.6mph /  7.4km/h 62% 0in /  0.0mm CLR
05:34 59.4 °F /  15.2 °C 46.2 °F /  7.9 °C 29.9in /  1013.8hPa SSW 4mph /  6.4km/h 5.8mph /  9.3km/h 62% 0in /  0.0mm CLR
05:39 59.4 °F /  15.2 °C 45.9 °F /  7.7 °C 29.9in /  1013.8hPa SW 3.1mph /  5.0km/h 6.9mph /  11.1km/h 61% 0in /  0.0mm CLR
05:44 59.4 °F /  15.2 °C 45.9 °F /  7.7 °C 29.9in /  1013.8hPa SW 3.1mph /  5.0km/h 5.8mph /  9.3km/h 61% 0in /  0.0mm CLR
05:49 59.4 °F /  15.2 °C 45.9 °F /  7.7 °C 29.9in /  1013.4hPa West 4.3mph /  6.9km/h 4.6mph /  7.4km/h 61% 0in /  0.0mm CLR
05:54 59.4 °F /  15.2 °C 45.9 °F /  7.7 °C 29.9in /  1013.4hPa NW 4.3mph /  6.9km/h 4.6mph /  7.4km/h 61% 0in /  0.0mm CLR
05:59 59 °F /  15.0 °C 46 °F /  7.8 °C 29.9in /  1013.4hPa West 3.1mph /  5.0km/h 6.9mph /  11.1km/h 62% 0in /  0.0mm CLR
06:04 58.8 °F /  14.9 °C 45.9 °F /  7.7 °C 29.9in /  1013.1hPa WSW 3.1mph /  5.0km/h 4.6mph /  7.4km/h 62% 0in /  0.0mm CLR
06:09 58.6 °F /  14.8 °C 46 °F /  7.8 °C 29.9in /  1013.1hPa SSW 3.1mph /  5.0km/h 4.6mph /  7.4km/h 63% 0in /  0.0mm CLR
06:14 58.8 °F /  14.9 °C 46.2 °F /  7.9 °C 29.9in /  1013.1hPa SSE 3.1mph /  5.0km/h 4.6mph /  7.4km/h 63% 0in /  0.0mm CLR
06:19 58.8 °F /  14.9 °C 46.2 °F /  7.9 °C 29.9in /  1013.4hPa SSW 2.9mph /  4.7km/h 5.9mph /  9.5km/h 63% 0in /  0.0mm CLR
06:24 58.8 °F /  14.9 °C 46.2 °F /  7.9 °C 29.9in /  1013.4hPa South 2.9mph /  4.7km/h 5.8mph /  9.3km/h 63% 0in /  0.0mm CLR
06:29 58.6 °F /  14.8 °C 46 °F /  7.8 °C 29.9in /  1013.4hPa SSW 4mph /  6.4km/h 4.6mph /  7.4km/h 63% 0in /  0.0mm CLR
06:34 58.6 °F /  14.8 °C 46 °F /  7.8 °C 29.9in /  1013.4hPa SSW 4mph /  6.4km/h 4.6mph /  7.4km/h 63% 0in /  0.0mm CLR
06:39 58.6 °F /  14.8 °C 46 °F /  7.8 °C 29.9in /  1013.4hPa SSW 4mph /  6.4km/h 5.8mph /  9.3km/h 63% 0in /  0.0mm CLR
06:44 58.5 °F /  14.7 °C 45.9 °F /  7.7 °C 29.9in /  1013.4hPa South 4mph /  6.4km/h 5.8mph /  9.3km/h 63% 0in /  0.0mm CLR
06:49 58.5 °F /  14.7 °C 46.2 °F /  7.9 °C 29.9in /  1013.4hPa South 4.3mph /  6.9km/h 4.6mph /  7.4km/h 64% 0in /  0.0mm CLR
06:54 58.3 °F /  14.6 °C 46.2 °F /  7.9 °C 29.9in /  1013.4hPa South 4.3mph /  6.9km/h 5.8mph /  9.3km/h 64% 0in /  0.0mm CLR
06:59 58.3 °F /  14.6 °C 46.2 °F /  7.9 °C 29.9in /  1013.4hPa South 3.1mph /  5.0km/h 3.5mph /  5.6km/h 64% 0in /  0.0mm CLR
07:04 58.3 °F /  14.6 °C 45.7 °F /  7.6 °C 29.9in /  1013.1hPa South 3.1mph /  5.0km/h 3.1mph /  5.0km/h 63% 0in /  0.0mm CLR
07:09 58.3 °F /  14.6 °C 46.2 °F /  7.9 °C 29.9in /  1013.1hPa SE 1.8mph /  2.9km/h 4.6mph /  7.4km/h 64% 0in /  0.0mm CLR
07:14 58.3 °F /  14.6 °C 45.7 °F /  7.6 °C 29.9in /  1013.1hPa South 1.8mph /  2.9km/h 5.8mph /  9.3km/h 63% 0in /  0.0mm CLR
07:19 58.1 °F /  14.5 °C 45.7 °F /  7.6 °C 29.9in /  1013.4hPa South 3.1mph /  5.0km/h 5.2mph /  8.4km/h 63% 0in /  0.0mm CLR
07:24 57.9 °F /  14.4 °C 45.3 °F /  7.4 °C 29.9in /  1013.4hPa SSE 3.1mph /  5.0km/h 8.1mph /  13.0km/h 63% 0in /  0.0mm CLR
07:29 57.7 °F /  14.3 °C 44.8 °F /  7.1 °C 29.9in /  1013.4hPa SSW 4.7mph /  7.6km/h 10.4mph /  16.7km/h 62% 0in /  0.0mm CLR
07:34 57.6 °F /  14.2 °C 44.6 °F /  7.0 °C 29.9in /  1013.4hPa South 4.7mph /  7.6km/h 9.2mph /  14.8km/h 62% 0in /  0.0mm CLR
07:39 57.7 °F /  14.3 °C 45.1 °F /  7.3 °C 29.9in /  1013.4hPa SSW 6.4mph /  10.3km/h 8.1mph /  13.0km/h 63% 0in /  0.0mm CLR
07:44 57.7 °F /  14.3 °C 45.1 °F /  7.3 °C 29.9in /  1013.4hPa SW 6.4mph /  10.3km/h 11.5mph /  18.5km/h 63% 0in /  0.0mm CLR
07:49 57.9 °F /  14.4 °C 45 °F /  7.2 °C 29.9in /  1013.4hPa SSW 5.9mph /  9.5km/h 9.2mph /  14.8km/h 62% 0in /  0.0mm CLR
07:54 58.1 °F /  14.5 °C 45.1 °F /  7.3 °C 29.9in /  1013.4hPa South 5.9mph /  9.5km/h 8.1mph /  13.0km/h 62% 0in /  0.0mm CLR
07:59 58.3 °F /  14.6 °C 45.3 °F /  7.4 °C 29.9in /  1013.4hPa SW 6.2mph /  10.0km/h 9.2mph /  14.8km/h 62% 0in /  0.0mm CLR
08:04 58.5 °F /  14.7 °C 45.1 °F /  7.3 °C 29.9in /  1013.4hPa SSW 6.2mph /  10.0km/h 9.2mph /  14.8km/h 61% 0in /  0.0mm CLR
08:09 58.6 °F /  14.8 °C 45.1 °F /  7.3 °C 29.9in /  1013.4hPa SSW 6.4mph /  10.3km/h 6.4mph /  10.3km/h 61% 0in /  0.0mm CLR
08:14 58.8 °F /  14.9 °C 45 °F /  7.2 °C 29.9in /  1013.4hPa WSW 6.4mph /  10.3km/h 6.4mph /  10.3km/h 60% 0in /  0.0mm CLR
08:19 59.2 °F /  15.1 °C 45 °F /  7.2 °C 29.9in /  1013.4hPa WSW 4.3mph /  6.9km/h 5.8mph /  9.3km/h 59% 0in /  0.0mm CLR
08:24 59.4 °F /  15.2 °C 45 °F /  7.2 °C 29.9in /  1013.4hPa South 4.3mph /  6.9km/h 5.8mph /  9.3km/h 59% 0in /  0.0mm CLR
08:26 59.5 °F /  15.3 °C 45.1 °F /  7.3 °C 29.9in /  1013.4hPa SSW 4mph /  6.4km/h 6.9mph /  11.1km/h 59% 0in /  0.0mm CLR
08:31 59.7 °F /  15.4 °C 45 °F /  7.2 °C 29.9in /  1013.4hPa SW 4mph /  6.4km/h 7.4mph /  11.9km/h 58% 0in /  0.0mm CLR
08:36 59.7 °F /  15.4 °C 45.3 °F /  7.4 °C 29.9in /  1013.4hPa SSW 5.4mph /  8.7km/h 8.1mph /  13.0km/h 59% 0in /  0.0mm CLR
08:41 59.5 °F /  15.3 °C 44.8 °F /  7.1 °C 29.9in /  1013.4hPa South 5.4mph /  8.7km/h 9.2mph /  14.8km/h 58% 0in /  0.0mm CLR
08:46 59.7 °F /  15.4 °C 45 °F /  7.2 °C 29.9in /  1013.4hPa SSW 5.4mph /  8.7km/h 6.9mph /  11.1km/h 58% 0in /  0.0mm CLR
08:51 59.7 °F /  15.4 °C 45 °F /  7.2 °C 29.9in /  1013.4hPa SSW 5.4mph /  8.7km/h 8.1mph /  13.0km/h 58% 0in /  0.0mm CLR
08:56 60.1 °F /  15.6 °C 45.1 °F /  7.3 °C 29.9in /  1013.4hPa SW 5.9mph /  9.5km/h 6.9mph /  11.1km/h 58% 0in /  0.0mm CLR
09:01 60.4 °F /  15.8 °C 45.7 °F /  7.6 °C 29.9in /  1013.4hPa SSW 5.9mph /  9.5km/h 5.9mph /  9.5km/h 58% 0in /  0.0mm CLR
09:06 60.6 °F /  15.9 °C 45.3 °F /  7.4 °C 29.9in /  1013.4hPa SSW 4.7mph /  7.6km/h 9.2mph /  14.8km/h 57% 0in /  0.0mm CLR
09:11 61 °F /  16.1 °C 45.7 °F /  7.6 °C 29.9in /  1013.4hPa South 4.7mph /  7.6km/h 6.9mph /  11.1km/h 57% 0in /  0.0mm CLR
09:16 61.3 °F /  16.3 °C 45.5 °F /  7.5 °C 29.9in /  1013.4hPa South 4.7mph /  7.6km/h 4.7mph /  7.6km/h 56% 0in /  0.0mm CLR
09:21 61.7 °F /  16.5 °C 45.9 °F /  7.7 °C 29.9in /  1013.8hPa SSE 4.7mph /  7.6km/h 6.9mph /  11.1km/h 56% 0in /  0.0mm CLR
09:26 62.1 °F /  16.7 °C 45.7 °F /  7.6 °C 29.9in /  1013.8hPa SE 4.3mph /  6.9km/h 5.8mph /  9.3km/h 55% 0in /  0.0mm CLR
09:31 62.4 °F /  16.9 °C 45.5 °F /  7.5 °C 29.9in /  1013.8hPa SE 4.3mph /  6.9km/h 6.9mph /  11.1km/h 54% 0in /  0.0mm CLR
09:36 62.8 °F /  17.1 °C 45.9 °F /  7.7 °C 29.9in /  1013.4hPa SSW 4.3mph /  6.9km/h 4.6mph /  7.4km/h 54% 0in /  0.0mm CLR
09:41 63.3 °F /  17.4 °C 45.9 °F /  7.7 °C 29.9in /  1013.4hPa SW 4.3mph /  6.9km/h 5.8mph /  9.3km/h 53% 0in /  0.0mm CLR
09:46 63.5 °F /  17.5 °C 46 °F /  7.8 °C 29.9in /  1013.4hPa SSW 4mph /  6.4km/h 5.8mph /  9.3km/h 53% 0in /  0.0mm CLR
09:51 63.7 °F /  17.6 °C 45.7 °F /  7.6 °C 29.9in /  1013.4hPa South 4mph /  6.4km/h 6.9mph /  11.1km/h 52% 0in /  0.0mm CLR
09:56 64.2 °F /  17.9 °C 46.2 °F /  7.9 °C 29.9in /  1013.4hPa SSE 3.1mph /  5.0km/h 3.6mph /  5.8km/h 52% 0in /  0.0mm CLR
10:01 64.9 °F /  18.3 °C 46.4 °F /  8.0 °C 29.9in /  1013.4hPa SW 3.1mph /  5.0km/h 5.8mph /  9.3km/h 51% 0in /  0.0mm CLR
10:06 65.5 °F /  18.6 °C 46.2 °F /  7.9 °C 29.9in /  1013.4hPa SSE 2.4mph /  3.9km/h 6.9mph /  11.1km/h 50% 0in /  0.0mm CLR
10:11 65.7 °F /  18.7 °C 46.9 °F /  8.3 °C 29.9in /  1013.4hPa NE 2.4mph /  3.9km/h 4.6mph /  7.4km/h 51% 0in /  0.0mm CLR
10:16 66 °F /  18.9 °C 46.8 °F /  8.2 °C 29.9in /  1013.4hPa SSE 3.1mph /  5.0km/h 5.4mph /  8.7km/h 50% 0in /  0.0mm CLR
10:21 66.4 °F /  19.1 °C 47.1 °F /  8.4 °C 29.9in /  1013.4hPa ESE 3.1mph /  5.0km/h 4.6mph /  7.4km/h 50% 0in /  0.0mm CLR
10:26 66.6 °F /  19.2 °C 47.3 °F /  8.5 °C 29.9in /  1013.4hPa SW 2.9mph /  4.7km/h 2.9mph /  4.7km/h 50% 0in /  0.0mm CLR
10:31 67.1 °F /  19.5 °C 47.8 °F /  8.8 °C 29.9in /  1013.4hPa NNW 2.9mph /  4.7km/h 3.6mph /  5.8km/h 50% 0in /  0.0mm CLR
10:36 67.6 °F /  19.8 °C 47.8 °F /  8.8 °C 29.9in /  1013.4hPa ESE 2mph /  3.2km/h 4.6mph /  7.4km/h 49% 0in /  0.0mm CLR
10:41 68.5 °F /  20.3 °C 49.3 °F /  9.6 °C 29.9in /  1013.4hPa ENE 2mph /  3.2km/h 8.1mph /  13.0km/h 50% 0in /  0.0mm CLR
10:46 69.3 °F /  20.7 °C 49.8 °F /  9.9 °C 29.9in /  1013.4hPa NE 4mph /  6.4km/h 11.5mph /  18.5km/h 50% 0in /  0.0mm CLR
10:52 69.6 °F /  20.9 °C 49.6 °F /  9.8 °C 29.9in /  1013.4hPa NE 4mph /  6.4km/h 9.2mph /  14.8km/h 49% 0in /  0.0mm CLR
10:57 70.2 °F /  21.2 °C 49.5 °F /  9.7 °C 29.9in /  1013.4hPa NE 7.6mph /  12.2km/h 18.4mph /  29.6km/h 48% 0in /  0.0mm CLR
11:02 70 °F /  21.1 °C 49.5 °F /  9.7 °C 29.9in /  1013.4hPa NE 7.6mph /  12.2km/h 17.3mph /  27.8km/h 48% 0in /  0.0mm CLR
11:07 70.2 °F /  21.2 °C 50.2 °F /  10.1 °C 29.9in /  1013.4hPa ENE 11.2mph /  18.0km/h 16.1mph /  25.9km/h 49% 0in /  0.0mm CLR
11:12 70.9 °F /  21.6 °C 49.6 °F /  9.8 °C 29.9in /  1013.4hPa East 11.2mph /  18.0km/h 16.1mph /  25.9km/h 47% 0in /  0.0mm CLR
11:17 71.1 °F /  21.7 °C 49.8 °F /  9.9 °C 29.9in /  1013.4hPa NE 8.7mph /  14.0km/h 11.5mph /  18.5km/h 47% 0in /  0.0mm CLR
11:22 70.9 °F /  21.6 °C 49.6 °F /  9.8 °C 29.9in /  1013.4hPa East 8.7mph /  14.0km/h 9.2mph /  14.8km/h 47% 0in /  0.0mm CLR
11:27 70.5 °F /  21.4 °C 49.3 °F /  9.6 °C 29.9in /  1013.4hPa NNE 8.5mph /  13.7km/h 21.9mph /  35.2km/h 47% 0in /  0.0mm CLR
11:32 70.7 °F /  21.5 °C 49.5 °F /  9.7 °C 29.9in /  1013.4hPa ENE 8.5mph /  13.7km/h 17.3mph /  27.8km/h 47% 0in /  0.0mm CLR
11:37 70.9 °F /  21.6 °C 50.2 °F /  10.1 °C 29.9in /  1013.8hPa NE 11.2mph /  18.0km/h 11.2mph /  18.0km/h 48% 0in /  0.0mm CLR
11:42 70.7 °F /  21.5 °C 50 °F /  10.0 °C 29.9in /  1013.8hPa ENE 11.2mph /  18.0km/h 20.7mph /  33.3km/h 48% 0in /  0.0mm CLR
11:47 70.9 °F /  21.6 °C 50.2 °F /  10.1 °C 29.9in /  1013.8hPa NE 8.7mph /  14.0km/h 21.3mph /  34.3km/h 48% 0in /  0.0mm CLR
11:52 70.5 °F /  21.4 °C 49.8 °F /  9.9 °C 29.9in /  1013.8hPa NNE 8.7mph /  14.0km/h 28.8mph /  46.3km/h 48% 0in /  0.0mm CLR
11:57 70.5 °F /  21.4 °C 50.4 °F /  10.2 °C 29.9in /  1013.8hPa East 14mph /  22.5km/h 18.1mph /  29.1km/h 49% 0in /  0.0mm CLR
12:02 70.9 °F /  21.6 °C 50.7 °F /  10.4 °C 29.9in /  1013.8hPa NE 14mph /  22.5km/h 15.6mph /  25.1km/h 49% 0in /  0.0mm CLR
12:07 71.4 °F /  21.9 °C 50.7 °F /  10.4 °C 29.9in /  1014.1hPa NE 10.2mph /  16.4km/h 17.3mph /  27.8km/h 48% 0in /  0.0mm CLR
12:12 71.2 °F /  21.8 °C 50.5 °F /  10.3 °C 29.9in /  1014.1hPa NE 10.2mph /  16.4km/h 14mph /  22.5km/h 48% 0in /  0.0mm CLR
12:17 71.2 °F /  21.8 °C 51.1 °F /  10.6 °C 29.9in /  1014.1hPa ENE 10.7mph /  17.2km/h 14.5mph /  23.3km/h 49% 0in /  0.0mm FEW
12:22 70.9 °F /  21.6 °C 50.7 °F /  10.4 °C 29.9in /  1013.8hPa East 10.7mph /  17.2km/h 16.1mph /  25.9km/h 49% 0in /  0.0mm FEW
12:27 70.9 °F /  21.6 °C 51.3 °F /  10.7 °C 29.9in /  1013.8hPa NNW 9.2mph /  14.8km/h 15mph /  24.1km/h 50% 0in /  0.0mm FEW
12:32 71.1 °F /  21.7 °C 51.4 °F /  10.8 °C 29.9in /  1013.8hPa East 9.2mph /  14.8km/h 16.1mph /  25.9km/h 50% 0in /  0.0mm FEW
12:37 71.1 °F /  21.7 °C 52 °F /  11.1 °C 29.9in /  1014.1hPa East 10.2mph /  16.4km/h 11.5mph /  18.5km/h 51% 0in /  0.0mm FEW
12:42 70.9 °F /  21.6 °C 51.8 °F /  11.0 °C 29.9in /  1014.1hPa ENE 10.2mph /  16.4km/h 11.5mph /  18.5km/h 51% 0in /  0.0mm FEW
12:47 71.2 °F /  21.8 °C 51.6 °F /  10.9 °C 29.9in /  1014.1hPa NE 8.7mph /  14.0km/h 17.3mph /  27.8km/h 50% 0in /  0.0mm FEW
12:52 71.2 °F /  21.8 °C 51.6 °F /  10.9 °C 29.9in /  1014.1hPa SSE 8.7mph /  14.0km/h 20.7mph /  33.3km/h 50% 0in /  0.0mm FEW
12:57 71.2 °F /  21.8 °C 51.6 °F /  10.9 °C 29.9in /  1014.1hPa NE 10mph /  16.1km/h 13.8mph /  22.2km/h 50% 0in /  0.0mm FEW
13:02 71.2 °F /  21.8 °C 51.6 °F /  10.9 °C 29.9in /  1014.1hPa NE 10mph /  16.1km/h 18.4mph /  29.6km/h 50% 0in /  0.0mm FEW
13:07 70.9 °F /  21.6 °C 51.8 °F /  11.0 °C 29.9in /  1014.1hPa East 11.4mph /  18.3km/h 23mph /  37.0km/h 51% 0in /  0.0mm FEW
13:12 71.1 °F /  21.7 °C 52 °F /  11.1 °C 29.9in /  1014.1hPa North 11.4mph /  18.3km/h 17.3mph /  27.8km/h 51% 0in /  0.0mm FEW
13:17 71.4 °F /  21.9 °C 51.3 °F /  10.7 °C 29.9in /  1014.1hPa East 10mph /  16.1km/h 24.2mph /  38.9km/h 49% 0in /  0.0mm CLR
13:22 71.4 °F /  21.9 °C 51.8 °F /  11.0 °C 29.9in /  1014.1hPa ENE 10mph /  16.1km/h 14.5mph /  23.3km/h 50% 0in /  0.0mm CLR
13:27 71.1 °F /  21.7 °C 51.4 °F /  10.8 °C 29.9in /  1014.1hPa ENE 10.2mph /  16.4km/h 17.3mph /  27.8km/h 50% 0in /  0.0mm CLR
13:32 70.5 °F /  21.4 °C 51.4 °F /  10.8 °C 29.9in /  1013.8hPa North 10.2mph /  16.4km/h 16.1mph /  25.9km/h 51% 0in /  0.0mm CLR
13:37 71.1 °F /  21.7 °C 52 °F /  11.1 °C 29.9in /  1013.8hPa East 12.3mph /  19.8km/h 17.3mph /  27.8km/h 51% 0in /  0.0mm CLR
13:42 70.9 °F /  21.6 °C 51.8 °F /  11.0 °C 29.9in /  1013.8hPa NE 12.3mph /  19.8km/h 21.9mph /  35.2km/h 51% 0in /  0.0mm CLR
13:47 71.1 °F /  21.7 °C 52 °F /  11.1 °C 29.9in /  1013.8hPa North 13mph /  20.9km/h 17mph /  27.4km/h 51% 0in /  0.0mm CLR
13:52 71.2 °F /  21.8 °C 51.6 °F /  10.9 °C 29.9in /  1013.8hPa NE 13mph /  20.9km/h 18.4mph /  29.6km/h 50% 0in /  0.0mm CLR
13:57 70.9 °F /  21.6 °C 51.8 °F /  11.0 °C 29.9in /  1013.8hPa ENE 10.2mph /  16.4km/h 18.4mph /  29.6km/h 51% 0in /  0.0mm CLR
14:02 71.1 °F /  21.7 °C 52 °F /  11.1 °C 29.9in /  1013.8hPa ENE 10.2mph /  16.4km/h 11.5mph /  18.5km/h 51% 0in /  0.0mm
14:07 71.2 °F /  21.8 °C 52.2 °F /  11.2 °C 29.9in /  1013.8hPa ENE 10.2mph /  16.4km/h 16.3mph /  26.2km/h 51% 0in /  0.0mm
14:12 71.2 °F /  21.8 °C 52.7 °F /  11.5 °C 29.9in /  1013.8hPa ENE 10.2mph /  16.4km/h 15mph /  24.1km/h 52% 0in /  0.0mm
14:17 71.1 °F /  21.7 °C 52 °F /  11.1 °C 29.9in /  1013.8hPa ENE 10.2mph /  16.4km/h 19.6mph /  31.5km/h 51% 0in /  0.0mm
14:22 70.5 °F /  21.4 °C 52 °F /  11.1 °C 29.9in /  1013.8hPa ESE 10.2mph /  16.4km/h 23mph /  37.0km/h 52% 0in /  0.0mm
14:27 71.1 °F /  21.7 °C 52 °F /  11.1 °C 29.9in /  1013.8hPa NE 12.3mph /  19.8km/h 21.9mph /  35.2km/h 51% 0in /  0.0mm
14:32 70.7 °F /  21.5 °C 52.2 °F /  11.2 °C 29.9in /  1013.4hPa ENE 12.3mph /  19.8km/h 19.6mph /  31.5km/h 52% 0in /  0.0mm
14:37 70.7 °F /  21.5 °C 52.7 °F /  11.5 °C 29.9in /  1013.4hPa NE 11.4mph /  18.3km/h 20.7mph /  33.3km/h 53% 0in /  0.0mm
14:42 71.1 °F /  21.7 °C 52.5 °F /  11.4 °C 29.9in /  1013.4hPa ENE 11.4mph /  18.3km/h 16.3mph /  26.2km/h 52% 0in /  0.0mm
14:47 71.2 °F /  21.8 °C 52.7 °F /  11.5 °C 29.9in /  1013.4hPa ESE 11.2mph /  18.0km/h 18.4mph /  29.6km/h 52% 0in /  0.0mm
14:52 71.4 °F /  21.9 °C 52.3 °F /  11.3 °C 29.9in /  1013.4hPa ENE 11.2mph /  18.0km/h 23mph /  37.0km/h 51% 0in /  0.0mm
14:57 71.1 °F /  21.7 °C 52.5 °F /  11.4 °C 29.9in /  1013.4hPa NE 10.7mph /  17.2km/h 12.7mph /  20.4km/h 52% 0in /  0.0mm
15:02 71.4 °F /  21.9 °C 52.3 °F /  11.3 °C 29.9in /  1013.4hPa East 10.7mph /  17.2km/h 19.6mph /  31.5km/h 51% 0in /  0.0mm
15:07 71.4 °F /  21.9 °C 52.3 °F /  11.3 °C 29.9in /  1013.4hPa ENE 10.7mph /  17.2km/h 18.4mph /  29.6km/h 51% 0in /  0.0mm
15:12 71.4 °F /  21.9 °C 52.9 °F /  11.6 °C 29.9in /  1013.4hPa ENE 10.7mph /  17.2km/h 13.8mph /  22.2km/h 52% 0in /  0.0mm
15:17 71.6 °F /  22.0 °C 52.5 °F /  11.4 °C 29.9in /  1013.4hPa ENE 10.7mph /  17.2km/h 18.4mph /  29.6km/h 51% 0in /  0.0mm
15:22 71.4 °F /  21.9 °C 52.3 °F /  11.3 °C 29.9in /  1013.4hPa NE 10.7mph /  17.2km/h 26.8mph /  43.1km/h 51% 0in /  0.0mm
15:27 70.9 °F /  21.6 °C 52.9 °F /  11.6 °C 29.9in /  1013.4hPa ENE 12.5mph /  20.1km/h 20.1mph /  32.3km/h 53% 0in /  0.0mm
15:32 71.1 °F /  21.7 °C 52.5 °F /  11.4 °C 29.9in /  1013.4hPa ESE 12.5mph /  20.1km/h 16.1mph /  25.9km/h 52% 0in /  0.0mm
15:37 71.2 °F /  21.8 °C 53.2 °F /  11.8 °C 29.9in /  1013.4hPa ENE 10.7mph /  17.2km/h 19.6mph /  31.5km/h 53% 0in /  0.0mm
15:42 71.4 °F /  21.9 °C 53.4 °F /  11.9 °C 29.9in /  1013.4hPa NNE 10.7mph /  17.2km/h 13.8mph /  22.2km/h 53% 0in /  0.0mm
15:47 71.8 °F /  22.1 °C 52.7 °F /  11.5 °C 29.9in /  1013.4hPa NNE 10.7mph /  17.2km/h 13.8mph /  22.2km/h 51% 0in /  0.0mm
15:52 72 °F /  22.2 °C 52.9 °F /  11.6 °C 29.9in /  1013.4hPa NE 10.7mph /  17.2km/h 11.5mph /  18.5km/h 51% 0in /  0.0mm
15:57 72.3 °F /  22.4 °C 52.5 °F /  11.4 °C 29.9in /  1013.4hPa ENE 8.7mph /  14.0km/h 15mph /  24.1km/h 50% 0in /  0.0mm
16:02 71.8 °F /  22.1 °C 52.7 °F /  11.5 °C 29.9in /  1013.1hPa NNE 8.7mph /  14.0km/h 19.6mph /  31.5km/h 51% 0in /  0.0mm
16:07 71.8 °F /  22.1 °C 53.2 °F /  11.8 °C 29.9in /  1013.1hPa ENE 11.2mph /  18.0km/h 18.4mph /  29.6km/h 52% 0in /  0.0mm
16:12 72.1 °F /  22.3 °C 53.1 °F /  11.7 °C 29.9in /  1013.1hPa ENE 11.2mph /  18.0km/h 17.3mph /  27.8km/h 51% 0in /  0.0mm
16:17 72.1 °F /  22.3 °C 52.5 °F /  11.4 °C 29.9in /  1013.1hPa East 9.7mph /  15.6km/h 19.6mph /  31.5km/h 50% 0in /  0.0mm
16:22 72 °F /  22.2 °C 51.8 °F /  11.0 °C 29.9in /  1013.1hPa ENE 9.7mph /  15.6km/h 20.7mph /  33.3km/h 49% 0in /  0.0mm
16:27 72.1 °F /  22.3 °C 52.5 °F /  11.4 °C 29.9in /  1013.1hPa NNE 10.2mph /  16.4km/h 17.3mph /  27.8km/h 50% 0in /  0.0mm
16:32 72.1 °F /  22.3 °C 51.4 °F /  10.8 °C 29.9in /  1013.1hPa East 10.2mph /  16.4km/h 20.7mph /  33.3km/h 48% 0in /  0.0mm
16:37 72 °F /  22.2 °C 52.3 °F /  11.3 °C 29.9in /  1013.1hPa ENE 10.2mph /  16.4km/h 15mph /  24.1km/h 50% 0in /  0.0mm
16:42 72.3 °F /  22.4 °C 52.2 °F /  11.2 °C 29.9in /  1013.1hPa NNE 10.2mph /  16.4km/h 11.5mph /  18.5km/h 49% 0in /  0.0mm
16:47 72.1 °F /  22.3 °C 52 °F /  11.1 °C 29.9in /  1013.1hPa ESE 9.2mph /  14.8km/h 9.2mph /  14.8km/h 49% 0in /  0.0mm FEW
16:52 72.1 °F /  22.3 °C 52 °F /  11.1 °C 29.9in /  1013.1hPa ENE 9.2mph /  14.8km/h 16.1mph /  25.9km/h 49% 0in /  0.0mm
16:57 72 °F /  22.2 °C 51.3 °F /  10.7 °C 29.9in /  1013.1hPa ESE 10.7mph /  17.2km/h 17.3mph /  27.8km/h 48% 0in /  0.0mm
17:02 72.1 °F /  22.3 °C 52 °F /  11.1 °C 29.9in /  1013.1hPa ESE 10.7mph /  17.2km/h 16.1mph /  25.9km/h 49% 0in /  0.0mm
17:07 72.3 °F /  22.4 °C 51.1 °F /  10.6 °C 29.9in /  1013.1hPa NNE 10.7mph /  17.2km/h 19.6mph /  31.5km/h 47% 0in /  0.0mm
17:12 72.1 °F /  22.3 °C 50.7 °F /  10.4 °C 29.9in /  1013.1hPa ESE 10.7mph /  17.2km/h 17.3mph /  27.8km/h 47% 0in /  0.0mm
17:18 72.3 °F /  22.4 °C 51.4 °F /  10.8 °C 29.9in /  1013.1hPa ENE 10mph /  16.1km/h 17.3mph /  27.8km/h 48% 0in /  0.0mm
17:21 72.1 °F /  22.3 °C 50.7 °F /  10.4 °C 29.9in /  1013.1hPa NE 10mph /  16.1km/h 10mph /  16.1km/h 47% 0in /  0.0mm
17:26 72.3 °F /  22.4 °C 51.1 °F /  10.6 °C 29.9in /  1013.1hPa ENE 9.7mph /  15.6km/h 15mph /  24.1km/h 47% 0in /  0.0mm
17:31 72 °F /  22.2 °C 50.5 °F /  10.3 °C 29.9in /  1013.1hPa ENE 9.7mph /  15.6km/h 16.1mph /  25.9km/h 47% 0in /  0.0mm
17:36 72 °F /  22.2 °C 50.5 °F /  10.3 °C 29.9in /  1012.8hPa North 8.7mph /  14.0km/h 20.7mph /  33.3km/h 47% 0in /  0.0mm
17:41 72.1 °F /  22.3 °C 50.7 °F /  10.4 °C 29.9in /  1012.8hPa East 8.7mph /  14.0km/h 11.5mph /  18.5km/h 47% 0in /  0.0mm
17:46 72 °F /  22.2 °C 51.3 °F /  10.7 °C 29.9in /  1012.8hPa East 9.7mph /  15.6km/h 16.1mph /  25.9km/h 48% 0in /  0.0mm
17:51 72.1 °F /  22.3 °C 50.2 °F /  10.1 °C 29.9in /  1013.1hPa ESE 9.7mph /  15.6km/h 12.7mph /  20.4km/h 46% 0in /  0.0mm
17:56 72.3 °F /  22.4 °C 50.4 °F /  10.2 °C 29.9in /  1013.1hPa ENE 8.7mph /  14.0km/h 17.3mph /  27.8km/h 46% 0in /  0.0mm
18:01 72.3 °F /  22.4 °C 49.8 °F /  9.9 °C 29.9in /  1013.1hPa SSE 8.7mph /  14.0km/h 13.8mph /  22.2km/h 45% 0in /  0.0mm
18:06 72.1 °F /  22.3 °C 49.6 °F /  9.8 °C 29.9in /  1013.1hPa NE 9.7mph /  15.6km/h 18.4mph /  29.6km/h 45% 0in /  0.0mm
18:11 72 °F /  22.2 °C 49.5 °F /  9.7 °C 29.9in /  1013.1hPa WNW 9.7mph /  15.6km/h 10.4mph /  16.7km/h 45% 0in /  0.0mm FEW
18:16 71.8 °F /  22.1 °C 49.3 °F /  9.6 °C 29.9in /  1013.1hPa East 8.7mph /  14.0km/h 17.3mph /  27.8km/h 45% 0in /  0.0mm FEW
18:21 72 °F /  22.2 °C 49.5 °F /  9.7 °C 29.9in /  1013.1hPa NNE 8.7mph /  14.0km/h 12.7mph /  20.4km/h 45% 0in /  0.0mm FEW
18:26 71.8 °F /  22.1 °C 49.3 °F /  9.6 °C 29.9in /  1013.1hPa NNW 8.7mph /  14.0km/h 12.7mph /  20.4km/h 45% 0in /  0.0mm FEW
18:31 71.8 °F /  22.1 °C 48.7 °F /  9.3 °C 29.9in /  1013.1hPa East 8.7mph /  14.0km/h 13.8mph /  22.2km/h 44% 0in /  0.0mm
18:36 71.8 °F /  22.1 °C 49.3 °F /  9.6 °C 29.9in /  1013.1hPa NNE 8.7mph /  14.0km/h 16.1mph /  25.9km/h 45% 0in /  0.0mm
18:41 71.6 °F /  22.0 °C 49.1 °F /  9.5 °C 29.9in /  1013.1hPa ESE 8.7mph /  14.0km/h 13.8mph /  22.2km/h 45% 0in /  0.0mm
18:46 71.4 °F /  21.9 °C 48.4 °F /  9.1 °C 29.9in /  1013.1hPa ESE 8.7mph /  14.0km/h 17.3mph /  27.8km/h 44% 0in /  0.0mm
18:51 71.6 °F /  22.0 °C 48.6 °F /  9.2 °C 29.9in /  1013.1hPa East 8.7mph /  14.0km/h 11.5mph /  18.5km/h 44% 0in /  0.0mm
18:56 71.4 °F /  21.9 °C 48.4 °F /  9.1 °C 29.9in /  1013.1hPa East 9.2mph /  14.8km/h 13.8mph /  22.2km/h 44% 0in /  0.0mm
19:01 71.4 °F /  21.9 °C 49.6 °F /  9.8 °C 29.9in /  1013.1hPa NW 9.2mph /  14.8km/h 12.7mph /  20.4km/h 46% 0in /  0.0mm
19:06 71.6 °F /  22.0 °C 50.4 °F /  10.2 °C 29.9in /  1013.1hPa NE 7.4mph /  11.9km/h 13.8mph /  22.2km/h 47% 0in /  0.0mm
19:12 71.2 °F /  21.8 °C 50 °F /  10.0 °C 29.9in /  1013.1hPa East 7.4mph /  11.9km/h 10.4mph /  16.7km/h 47% 0in /  0.0mm
19:17 71.2 °F /  21.8 °C 50 °F /  10.0 °C 29.9in /  1013.1hPa ENE 8.1mph /  13.0km/h 16.1mph /  25.9km/h 47% 0in /  0.0mm FEW
19:22 71.1 °F /  21.7 °C 50.4 °F /  10.2 °C 29.9in /  1013.1hPa ENE 8.1mph /  13.0km/h 17mph /  27.4km/h 48% 0in /  0.0mm FEW
19:27 70.9 °F /  21.6 °C 50.2 °F /  10.1 °C 29.9in /  1013.1hPa NNE 8.5mph /  13.7km/h 11.5mph /  18.5km/h 48% 0in /  0.0mm FEW
19:32 70.9 °F /  21.6 °C 50.2 °F /  10.1 °C 29.9in /  1013.1hPa NNE 8.5mph /  13.7km/h 13.8mph /  22.2km/h 48% 0in /  0.0mm
19:37 70.5 °F /  21.4 °C 50.4 °F /  10.2 °C 29.9in /  1013.1hPa NE 7.6mph /  12.2km/h 8.5mph /  13.7km/h 49% 0in /  0.0mm
19:42 70.5 °F /  21.4 °C 51.1 °F /  10.6 °C 29.9in /  1013.1hPa NE 7.6mph /  12.2km/h 11.5mph /  18.5km/h 50% 0in /  0.0mm
19:47 70.5 °F /  21.4 °C 51.1 °F /  10.6 °C 29.9in /  1013.1hPa ESE 7.4mph /  11.9km/h 10.4mph /  16.7km/h 50% 0in /  0.0mm
19:52 70.7 °F /  21.5 °C 50 °F /  10.0 °C 29.9in /  1013.1hPa ENE 7.4mph /  11.9km/h 12.7mph /  20.4km/h 48% 0in /  0.0mm
19:57 70.3 °F /  21.3 °C 50.4 °F /  10.2 °C 29.9in /  1013.1hPa East 6.2mph /  10.0km/h 13.8mph /  22.2km/h 49% 0in /  0.0mm
20:02 70 °F /  21.1 °C 49.8 °F /  9.9 °C 29.9in /  1013.1hPa ENE 6.2mph /  10.0km/h 10mph /  16.1km/h 49% 0in /  0.0mm
20:07 70 °F /  21.1 °C 49.8 °F /  9.9 °C 29.9in /  1013.4hPa ESE 7.6mph /  12.2km/h 11.5mph /  18.5km/h 49% 0in /  0.0mm
20:08 70 °F /  21.1 °C 50.5 °F /  10.3 °C 29.9in /  1013.4hPa East 7.6mph /  12.2km/h 11.5mph /  18.5km/h 50% 0in /  0.0mm
20:13 69.8 °F /  21.0 °C 50.4 °F /  10.2 °C 29.9in /  1013.4hPa ENE 7.6mph /  12.2km/h 9.2mph /  14.8km/h 50% 0in /  0.0mm
20:18 69.6 °F /  20.9 °C 50.2 °F /  10.1 °C 29.9in /  1013.4hPa ENE 5.9mph /  9.5km/h 9.7mph /  15.6km/h 50% 0in /  0.0mm FEW
20:23 69.4 °F /  20.8 °C 50 °F /  10.0 °C 29.9in /  1013.4hPa NE 5.9mph /  9.5km/h 8.1mph /  13.0km/h 50% 0in /  0.0mm FEW
20:24 69.4 °F /  20.8 °C 50.5 °F /  10.3 °C 29.9in /  1013.4hPa NE 5.9mph /  9.5km/h 10.4mph /  16.7km/h 51% 0in /  0.0mm FEW
20:29 69.4 °F /  20.8 °C 50.5 °F /  10.3 °C 29.9in /  1013.4hPa ENE 5.9mph /  9.5km/h 10.4mph /  16.7km/h 51% 0in /  0.0mm FEW
20:34 69.1 °F /  20.6 °C 50.7 °F /  10.4 °C 29.9in /  1013.4hPa NE 5.9mph /  9.5km/h 10.4mph /  16.7km/h 52% 0in /  0.0mm FEW
20:39 68.7 °F /  20.4 °C 50.9 °F /  10.5 °C 29.9in /  1013.4hPa NE 6.4mph /  10.3km/h 12.7mph /  20.4km/h 53% 0in /  0.0mm FEW
20:44 68.5 °F /  20.3 °C 51.3 °F /  10.7 °C 29.9in /  1013.4hPa NE 6.4mph /  10.3km/h 6.9mph /  11.1km/h 54% 0in /  0.0mm FEW
20:49 68.4 °F /  20.2 °C 51.1 °F /  10.6 °C 29.9in /  1013.8hPa NE 6.4mph /  10.3km/h 11.5mph /  18.5km/h 54% 0in /  0.0mm FEW
20:54 68.2 °F /  20.1 °C 51.4 °F /  10.8 °C 29.9in /  1013.8hPa NNE 6.4mph /  10.3km/h 8.1mph /  13.0km/h 55% 0in /  0.0mm FEW
20:59 68 °F /  20.0 °C 51.3 °F /  10.7 °C 29.9in /  1013.8hPa NE 6.9mph /  11.1km/h 10.4mph /  16.7km/h 55% 0in /  0.0mm FEW
21:04 67.8 °F /  19.9 °C 51.1 °F /  10.6 °C 29.9in /  1013.8hPa ENE 6.9mph /  11.1km/h 10.4mph /  16.7km/h 55% 0in /  0.0mm FEW
21:09 67.6 °F /  19.8 °C 51.4 °F /  10.8 °C 29.9in /  1013.8hPa NE 6.4mph /  10.3km/h 6.9mph /  11.1km/h 56% 0in /  0.0mm FEW
21:14 67.5 °F /  19.7 °C 51.3 °F /  10.7 °C 29.9in /  1013.8hPa NE 6.4mph /  10.3km/h 6.9mph /  11.1km/h 56% 0in /  0.0mm FEW
21:19 67.3 °F /  19.6 °C 51.4 °F /  10.8 °C 29.9in /  1013.8hPa NE 5.4mph /  8.7km/h 6.9mph /  11.1km/h 57% 0in /  0.0mm
21:24 66.9 °F /  19.4 °C 51.6 °F /  10.9 °C 29.9in /  1013.8hPa NE 5.4mph /  8.7km/h 10.4mph /  16.7km/h 58% 0in /  0.0mm
21:29 66.7 °F /  19.3 °C 51.4 °F /  10.8 °C 29.9in /  1013.8hPa NE 5.9mph /  9.5km/h 6.9mph /  11.1km/h 58% 0in /  0.0mm
21:34 66.7 °F /  19.3 °C 52 °F /  11.1 °C 29.9in /  1014.1hPa NE 5.9mph /  9.5km/h 6.9mph /  11.1km/h 59% 0in /  0.0mm
21:39 66.7 °F /  19.3 °C 52 °F /  11.1 °C 29.9in /  1014.1hPa NE 5.2mph /  8.4km/h 5.8mph /  9.3km/h 59% 0in /  0.0mm
21:44 66.6 °F /  19.2 °C 51.8 °F /  11.0 °C 29.9in /  1014.1hPa NE 5.2mph /  8.4km/h 5.8mph /  9.3km/h 59% 0in /  0.0mm CLR
21:49 66.6 °F /  19.2 °C 51.3 °F /  10.7 °C 29.9in /  1014.1hPa NE 3.6mph /  5.8km/h 6.9mph /  11.1km/h 58% 0in /  0.0mm CLR
21:54 66.4 °F /  19.1 °C 51.6 °F /  10.9 °C 29.9in /  1014.1hPa NE 3.6mph /  5.8km/h 5.2mph /  8.4km/h 59% 0in /  0.0mm CLR
21:59 66.2 °F /  19.0 °C 51.4 °F /  10.8 °C 29.9in /  1014.1hPa NE 4.3mph /  6.9km/h 5.8mph /  9.3km/h 59% 0in /  0.0mm CLR
22:04 66 °F /  18.9 °C 51.6 °F /  10.9 °C 29.9in /  1014.1hPa NE 4.3mph /  6.9km/h 6.4mph /  10.3km/h 60% 0in /  0.0mm CLR
22:09 65.8 °F /  18.8 °C 51.6 °F /  10.9 °C 29.9in /  1014.1hPa East 4.3mph /  6.9km/h 4.6mph /  7.4km/h 60% 0in /  0.0mm CLR
22:14 65.7 °F /  18.7 °C 51.8 °F /  11.0 °C 29.9in /  1014.1hPa ESE 4.3mph /  6.9km/h 4.3mph /  6.9km/h 61% 0in /  0.0mm CLR
22:19 65.7 °F /  18.7 °C 51.8 °F /  11.0 °C 30in /  1014.4hPa ENE 2.9mph /  4.7km/h 3.5mph /  5.6km/h 61% 0in /  0.0mm CLR
22:24 65.7 °F /  18.7 °C 51.8 °F /  11.0 °C 30in /  1014.4hPa ENE 2.9mph /  4.7km/h 2.9mph /  4.7km/h 61% 0in /  0.0mm CLR
22:29 65.5 °F /  18.6 °C 51.6 °F /  10.9 °C 30in /  1014.4hPa ENE 1.8mph /  2.9km/h 3.5mph /  5.6km/h 61% 0in /  0.0mm CLR
22:34 65.5 °F /  18.6 °C 52.2 °F /  11.2 °C 30in /  1014.4hPa ENE 1.8mph /  2.9km/h 4.6mph /  7.4km/h 62% 0in /  0.0mm CLR
22:39 65.3 °F /  18.5 °C 52 °F /  11.1 °C 30in /  1014.4hPa NE 1.8mph /  2.9km/h 4.6mph /  7.4km/h 62% 0in /  0.0mm CLR
22:44 65.1 °F /  18.4 °C 51.8 °F /  11.0 °C 30in /  1014.4hPa NNE 1.8mph /  2.9km/h 4.6mph /  7.4km/h 62% 0in /  0.0mm CLR
22:49 64.9 °F /  18.3 °C 52 °F /  11.1 °C 30in /  1014.8hPa ENE 2.9mph /  4.7km/h 5.8mph /  9.3km/h 63% 0in /  0.0mm CLR
22:54 64.8 °F /  18.2 °C 52 °F /  11.1 °C 30in /  1014.8hPa NE 2.9mph /  4.7km/h 5.8mph /  9.3km/h 63% 0in /  0.0mm CLR
22:59 64.6 °F /  18.1 °C 52.2 °F /  11.2 °C 30in /  1014.8hPa ENE 3.6mph /  5.8km/h 8.1mph /  13.0km/h 64% 0in /  0.0mm CLR
23:04 64.4 °F /  18.0 °C 52 °F /  11.1 °C 30in /  1015.1hPa NE 3.6mph /  5.8km/h 3.6mph /  5.8km/h 64% 0in /  0.0mm CLR
23:09 64.2 °F /  17.9 °C 52.2 °F /  11.2 °C 30in /  1015.1hPa NE 3.1mph /  5.0km/h 4.3mph /  6.9km/h 65% 0in /  0.0mm CLR
23:14 64.2 °F /  17.9 °C 51.8 °F /  11.0 °C 30in /  1015.1hPa ENE 3.1mph /  5.0km/h 4.6mph /  7.4km/h 64% 0in /  0.0mm CLR
23:19 64.2 °F /  17.9 °C 51.8 °F /  11.0 °C 30in /  1015.1hPa NE 2.4mph /  3.9km/h 3.5mph /  5.6km/h 64% 0in /  0.0mm CLR
23:24 64.2 °F /  17.9 °C 51.8 °F /  11.0 °C 30in /  1015.1hPa NE 2.4mph /  3.9km/h 4.6mph /  7.4km/h 64% 0in /  0.0mm CLR
23:29 64.2 °F /  17.9 °C 51.8 °F /  11.0 °C 30in /  1015.1hPa NE 2.4mph /  3.9km/h 3.5mph /  5.6km/h 64% 0in /  0.0mm CLR
23:34 64 °F /  17.8 °C 51.6 °F /  10.9 °C 30in /  1015.1hPa ENE 2.4mph /  3.9km/h 3.5mph /  5.6km/h 64% 0in /  0.0mm CLR
23:39 64 °F /  17.8 °C 52 °F /  11.1 °C 30in /  1015.1hPa ENE 1.8mph /  2.9km/h 2.3mph /  3.7km/h 65% 0in /  0.0mm CLR
23:44 63.9 °F /  17.7 °C 52 °F /  11.1 °C 30in /  1015.1hPa ENE 1.8mph /  2.9km/h 2.3mph /  3.7km/h 65% 0in /  0.0mm CLR
23:49 63.7 °F /  17.6 °C 51.6 °F /  10.9 °C 30in /  1015.1hPa NE 1.4mph /  2.3km/h 4.6mph /  7.4km/h 65% 0in /  0.0mm CLR
23:54 63.3 °F /  17.4 °C 51.8 °F /  11.0 °C 30in /  1015.1hPa NE 1.4mph /  2.3km/h 4.6mph /  7.4km/h 66% 0in /  0.0mm CLR
23:59 63.1 °F /  17.3 °C 52 °F /  11.1 °C 30in /  1015.1hPa NE 2mph /  3.2km/h 4.6mph /  7.4km/h 67% 0in /  0.0mm CLR
Murcia-Puente Tocinos, España
Compliments of Weather Underground - 2.75 mb

La estación de MeteoMurcia.com, publica sus datos en los siguientes proyectos:

Meteoclimatic www.awekas.at

W3Counter
Web Analytics